Time;durP1;ratioP1;P1;durP2;ratioP2;P2;SDS_P1;SDS_P2;PMS_P1;PMS_P2;Temp;Humidity;BMP_temperature;BMP_pressure;BME280_temperature;BME280_humidity;BME280_pressure;Samples;Min_cycle;Max_cycle;Signal;HPM_P1;HPM_P2
2022/11/03 00:00:24;;;;;;;8.43;4.13;;;12.00;99.90;;;;;;10097306;28;20526;-71
2022/11/03 00:10:27;;;;;;;4.13;2.42;;;11.90;99.90;;;;;;10106980;28;20175;-69
2022/11/03 00:15:18;;;;;;;6.68;3.33;;;11.80;99.90;;;;;;10099333;28;20183;-69
2022/11/03 00:20:10;;;;;;;12.10;2.75;;;11.80;99.90;;;;;;10102549;28;20043;-70
2022/11/03 00:25:00;;;;;;;13.80;3.72;;;11.70;99.90;;;;;;10081720;28;20115;-69
2022/11/03 00:29:51;;;;;;;5.93;2.95;;;11.70;99.90;;;;;;10109542;28;20348;-70
2022/11/03 00:34:42;;;;;;;6.47;3.08;;;11.70;99.90;;;;;;10102449;28;20546;-69
2022/11/03 00:39:32;;;;;;;8.45;2.88;;;11.70;99.90;;;;;;10105175;28;20029;-69
2022/11/03 00:44:23;;;;;;;5.32;2.38;;;11.60;99.90;;;;;;10097726;28;20067;-70
2022/11/03 00:49:13;;;;;;;5.07;2.90;;;11.60;99.90;;;;;;10098508;28;20025;-70
2022/11/03 00:54:06;;;;;;;6.60;3.28;;;11.60;99.90;;;;;;10095157;28;20041;-71
2022/11/03 00:58:58;;;;;;;4.07;2.53;;;11.50;99.90;;;;;;10087141;28;20052;-69
2022/11/03 01:09:03;;;;;;;6.28;3.30;;;11.50;99.90;;;;;;10097732;28;20083;-69
2022/11/03 01:13:54;;;;;;;5.53;2.67;;;11.20;99.90;;;;;;10099236;28;20102;-68
2022/11/03 01:18:45;;;;;;;6.53;2.95;;;11.40;99.90;;;;;;10102160;28;20017;-69
2022/11/03 01:23:36;;;;;;;7.13;3.88;;;11.40;99.90;;;;;;10100575;28;20080;-71
2022/11/03 01:28:26;;;;;;;4.15;2.72;;;11.30;99.90;;;;;;10110354;28;20139;-69
2022/11/03 01:33:17;;;;;;;10.30;3.63;;;11.30;99.90;;;;;;10079695;28;20152;-70
2022/11/03 01:38:07;;;;;;;8.18;2.90;;;11.30;99.90;;;;;;10091747;28;20475;-70
2022/11/03 01:43:18;;;;;;;5.18;3.17;;;11.20;99.90;;;;;;10093871;28;20048;-69
2022/11/03 01:48:10;;;;;;;5.30;3.35;;;11.20;99.90;;;;;;10116252;28;20033;-70
2022/11/03 01:53:01;;;;;;;4.38;2.58;;;11.20;99.90;;;;;;10089415;28;20033;-72
2022/11/03 01:58:19;;;;;;;5.78;3.25;;;11.20;99.90;;;;;;10096640;28;20021;-71
2022/11/03 02:03:10;;;;;;;5.20;2.60;;;11.20;99.90;;;;;;10107629;28;20111;-70
2022/11/03 02:08:24;;;;;;;9.57;4.85;;;11.10;99.90;;;;;;10086944;28;20060;-69
2022/11/03 02:13:19;;;;;;;5.93;3.15;;;11.20;99.90;;;;;;10094464;28;20505;-69
2022/11/03 02:18:11;;;;;;;7.38;4.60;;;11.10;99.90;;;;;;10106692;28;20063;-70
2022/11/03 02:23:02;;;;;;;4.82;3.10;;;11.00;99.90;;;;;;10108608;28;20503;-70
2022/11/03 02:27:52;;;;;;;8.85;3.03;;;11.10;99.90;;;;;;10100551;28;20029;-69
2022/11/03 02:32:59;;;;;;;6.18;3.42;;;11.10;99.90;;;;;;10104255;28;20336;-70
2022/11/03 02:37:55;;;;;;;6.95;2.95;;;11.10;99.90;;;;;;10108753;28;20036;-69
2022/11/03 02:42:49;;;;;;;5.00;2.85;;;11.10;99.90;;;;;;10111568;28;21138;-69
2022/11/03 02:47:41;;;;;;;3.72;2.50;;;11.00;99.90;;;;;;10107981;28;20083;-71
2022/11/03 02:52:42;;;;;;;7.40;2.78;;;11.00;99.90;;;;;;10107831;28;20460;-70
2022/11/03 02:57:37;;;;;;;6.47;2.88;;;11.00;99.90;;;;;;10112538;28;20079;-69
2022/11/03 03:02:51;;;;;;;6.28;2.97;;;11.00;99.90;;;;;;10107263;28;20058;-70
2022/11/03 03:07:46;;;;;;;4.18;2.78;;;11.00;99.90;;;;;;10101495;28;20098;-70
2022/11/03 03:12:42;;;;;;;5.38;2.50;;;11.00;99.90;;;;;;10111953;28;20025;-69
2022/11/03 03:17:57;;;;;;;6.95;2.10;;;11.00;99.90;;;;;;10107829;28;20113;-70
2022/11/03 03:23:06;;;;;;;4.80;2.00;;;11.00;99.90;;;;;;10106229;28;20021;-69
2022/11/03 03:28:05;;;;;;;2.92;2.15;;;11.00;99.90;;;;;;10102880;28;20064;-69
2022/11/03 03:32:58;;;;;;;3.40;1.52;;;10.90;99.90;;;;;;10104032;28;20586;-70
2022/11/03 03:37:53;;;;;;;3.78;1.98;;;11.00;99.90;;;;;;10107998;28;20040;-69
2022/11/03 03:42:45;;;;;;;5.10;2.10;;;10.90;99.90;;;;;;10098736;28;20029;-69
2022/11/03 03:47:36;;;;;;;2.88;1.92;;;11.00;99.90;;;;;;10106776;28;20048;-69
2022/11/03 03:52:28;;;;;;;4.72;2.17;;;10.90;99.90;;;;;;10103910;28;20028;-69
2022/11/03 03:57:22;;;;;;;7.10;2.03;;;10.10;99.90;;;;;;10106272;28;20204;-69
2022/11/03 04:02:13;;;;;;;4.38;2.42;;;10.70;99.90;;;;;;10094022;28;20025;-70
2022/11/03 04:22:39;;;;;;;4.57;2.17;;;10.50;99.90;;;;;;10089090;28;20097;-71
2022/11/03 04:27:33;;;;;;;8.02;2.90;;;10.50;99.90;;;;;;10107088;28;20114;-70
2022/11/03 04:32:24;;;;;;;4.32;2.47;;;10.60;99.90;;;;;;10081368;28;20495;-71
2022/11/03 04:37:15;;;;;;;3.78;2.13;;;10.50;99.90;;;;;;10092462;28;20052;-69
2022/11/03 04:42:20;;;;;;;2.95;2.10;;;10.40;99.90;;;;;;10105985;28;20025;-69
2022/11/03 04:47:12;;;;;;;7.75;2.67;;;10.40;99.90;;;;;;10111965;28;20120;-70
2022/11/03 04:52:13;;;;;;;6.25;2.95;;;10.50;99.90;;;;;;10107674;28;20032;-69
2022/11/03 04:57:12;;;;;;;3.17;2.03;;;10.50;99.90;;;;;;10102729;28;20213;-70
2022/11/03 05:02:10;;;;;;;4.90;2.05;;;10.40;99.90;;;;;;10108800;28;20036;-69
2022/11/03 05:07:01;;;;;;;6.93;2.90;;;10.50;99.90;;;;;;10095042;28;20037;-69
2022/11/03 05:11:52;;;;;;;6.13;2.78;;;10.60;99.90;;;;;;10104729;28;20025;-70
2022/11/03 05:16:42;;;;;;;3.10;2.05;;;10.60;99.90;;;;;;10100502;28;20099;-70
2022/11/03 05:21:33;;;;;;;6.50;2.17;;;10.60;99.90;;;;;;10104156;28;20017;-70
2022/11/03 05:26:28;;;;;;;5.18;2.22;;;10.60;99.90;;;;;;10108470;28;20041;-70
2022/11/03 05:31:29;;;;;;;4.73;2.17;;;10.60;99.90;;;;;;10095229;28;20013;-70
2022/11/03 05:36:22;;;;;;;5.85;2.63;;;10.50;99.90;;;;;;10110917;28;20025;-71
2022/11/03 05:41:22;;;;;;;2.40;1.60;;;10.50;99.90;;;;;;10104329;28;20040;-71
2022/11/03 05:46:14;;;;;;;4.35;2.35;;;10.50;99.90;;;;;;10099625;28;20423;-70
2022/11/03 05:51:33;;;;;;;5.95;2.17;;;10.60;99.90;;;;;;10109258;28;20033;-71
2022/11/03 05:56:24;;;;;;;5.50;1.90;;;10.70;99.90;;;;;;10104249;28;20135;-71
2022/11/03 06:01:36;;;;;;;2.90;2.63;;;10.70;99.90;;;;;;10098102;28;20055;-71
2022/11/03 06:06:33;;;;;;;3.95;2.13;;;10.80;99.90;;;;;;10101581;28;20148;-71
2022/11/03 06:11:29;;;;;;;5.93;2.20;;;10.70;99.90;;;;;;10104660;28;20028;-72
2022/11/03 06:16:40;;;;;;;3.85;2.15;;;10.70;99.90;;;;;;10113226;28;20213;-70
2022/11/03 06:21:31;;;;;;;5.45;2.25;;;10.70;99.90;;;;;;10090658;28;20005;-71
2022/11/03 06:26:25;;;;;;;4.72;2.35;;;10.60;99.90;;;;;;10111868;28;20060;-73
2022/11/03 06:31:23;;;;;;;4.28;1.92;;;10.60;99.90;;;;;;10111868;28;20346;-72
2022/11/03 06:36:23;;;;;;;3.70;2.38;;;10.60;99.90;;;;;;10111597;28;20024;-70
2022/11/03 06:41:26;;;;;;;5.47;1.90;;;10.70;99.90;;;;;;10116876;28;20198;-71
2022/11/03 06:46:25;;;;;;;6.03;2.42;;;10.70;99.90;;;;;;10111365;28;20049;-74
2022/11/03 06:51:20;;;;;;;4.75;2.28;;;11.00;99.90;;;;;;10093686;28;20307;-73
2022/11/03 06:56:14;;;;;;;5.45;2.47;;;11.30;99.90;;;;;;10105382;28;20033;-72
2022/11/03 07:01:17;;;;;;;4.32;2.25;;;11.30;99.90;;;;;;10116540;28;20013;-72
2022/11/03 07:06:20;;;;;;;8.80;2.95;;;11.10;99.90;;;;;;10097791;28;20052;-72
2022/11/03 07:11:15;;;;;;;4.90;2.45;;;11.10;99.90;;;;;;10089036;28;20060;-72
2022/11/03 07:16:26;;;;;;;6.53;2.40;;;11.10;99.90;;;;;;10096800;28;20120;-71
2022/11/03 07:21:42;;;;;;;6.05;2.92;;;11.10;99.90;;;;;;10108129;28;20370;-71
2022/11/03 07:26:33;;;;;;;3.38;2.08;;;11.00;99.90;;;;;;10099613;28;20447;-71
2022/11/03 07:31:25;;;;;;;5.30;3.17;;;11.10;99.90;;;;;;10114942;28;20028;-76
2022/11/03 07:36:21;;;;;;;3.80;2.30;;;11.10;99.90;;;;;;10113965;28;20405;-73
2022/11/03 07:41:18;;;;;;;9.93;3.67;;;11.10;99.90;;;;;;10108604;28;20476;-72
2022/11/03 07:46:15;;;;;;;6.07;2.70;;;11.10;99.90;;;;;;10109822;28;20048;-72
2022/11/03 07:51:30;;;;;;;4.53;2.22;;;11.20;99.90;;;;;;10091181;28;20041;-72
2022/11/03 07:56:32;;;;;;;8.07;2.83;;;11.30;99.90;;;;;;10109476;28;20048;-72
2022/11/03 08:01:24;;;;;;;9.13;3.55;;;11.50;99.90;;;;;;10106556;28;20051;-72
2022/11/03 08:06:15;;;;;;;7.63;3.08;;;11.60;99.90;;;;;;10108203;28;20128;-73
2022/11/03 08:11:07;;;;;;;5.32;3.03;;;11.80;99.90;;;;;;10090187;28;20036;-72
2022/11/03 08:15:58;;;;;;;4.43;2.35;;;11.90;99.90;;;;;;10095550;28;20025;-72
2022/11/03 08:20:49;;;;;;;6.88;2.63;;;11.80;99.90;;;;;;10093926;28;20040;-73
2022/11/03 08:25:40;;;;;;;6.93;2.92;;;11.90;99.90;;;;;;10094025;28;20162;-71
2022/11/03 08:30:32;;;;;;;2.97;1.95;;;12.00;99.90;;;;;;10110228;28;20203;-71
2022/11/03 08:35:23;;;;;;;3.63;2.17;;;12.10;99.90;;;;;;10118102;28;20029;-73
2022/11/03 08:40:14;;;;;;;4.72;2.22;;;12.30;99.90;;;;;;10096933;28;20296;-73
2022/11/03 08:45:06;;;;;;;6.53;3.03;;;12.40;99.90;;;;;;10115599;28;20287;-73
2022/11/03 08:49:57;;;;;;;4.13;2.65;;;12.50;99.90;;;;;;10087547;28;20024;-71
2022/11/03 08:54:48;;;;;;;4.03;2.38;;;12.50;99.90;;;;;;10075611;28;20029;-73
2022/11/03 08:59:39;;;;;;;7.68;2.28;;;12.60;99.90;;;;;;10111773;28;20025;-73
2022/11/03 09:04:29;;;;;;;7.35;2.65;;;12.80;99.90;;;;;;10116892;28;20545;-72
2022/11/03 09:09:20;;;;;;;5.47;2.30;;;12.80;99.90;;;;;;10120153;28;20013;-72
2022/11/03 09:14:11;;;;;;;4.15;2.22;;;12.90;99.90;;;;;;10113603;28;20028;-72
2022/11/03 09:19:02;;;;;;;4.65;2.28;;;12.90;99.90;;;;;;10110979;28;20244;-71
2022/11/03 09:23:52;;;;;;;2.60;1.98;;;13.00;99.90;;;;;;10113427;28;20107;-72
2022/11/03 09:28:43;;;;;;;5.90;2.53;;;13.10;99.90;;;;;;10101877;28;20436;-72
2022/11/03 09:33:34;;;;;;;3.72;2.47;;;13.30;99.90;;;;;;10101030;28;20029;-69
2022/11/03 09:38:24;;;;;;;5.15;2.47;;;13.40;99.90;;;;;;10093491;28;20028;-72
2022/11/03 09:43:17;;;;;;;3.28;2.33;;;13.40;99.90;;;;;;10110437;28;20301;-72
2022/11/03 09:48:12;;;;;;;7.95;3.45;;;13.40;99.90;;;;;;10111186;28;20029;-72
2022/11/03 09:53:03;;;;;;;6.68;3.03;;;13.50;99.90;;;;;;10093438;28;20075;-73
2022/11/03 09:57:59;;;;;;;7.63;3.67;;;13.60;99.90;;;;;;10115591;28;20078;-72
2022/11/03 10:02:50;;;;;;;5.82;2.85;;;13.80;99.90;;;;;;10092992;28;20032;-70
2022/11/03 10:07:43;;;;;;;4.10;2.38;;;14.00;99.90;;;;;;10112313;28;20039;-72
2022/11/03 10:12:36;;;;;;;6.32;2.78;;;14.10;99.90;;;;;;10112933;28;20026;-73
2022/11/03 10:17:29;;;;;;;6.55;3.83;;;14.10;99.90;;;;;;10109218;28;20087;-71
2022/11/03 10:22:21;;;;;;;4.03;2.55;;;14.00;99.90;;;;;;10110926;28;20058;-73
2022/11/03 10:27:24;;;;;;;5.38;2.80;;;14.10;99.90;;;;;;10107411;28;20377;-71
2022/11/03 10:32:29;;;;;;;6.90;3.00;;;14.20;99.90;;;;;;10110224;28;20067;-72
2022/11/03 10:37:24;;;;;;;6.72;2.72;;;14.20;99.90;;;;;;10111317;28;20421;-71
2022/11/03 10:42:25;;;;;;;6.03;3.13;;;14.20;99.90;;;;;;10108609;28;20029;-73
2022/11/03 10:47:23;;;;;;;6.72;2.97;;;14.30;99.90;;;;;;10105779;28;20052;-72
2022/11/03 10:52:19;;;;;;;8.73;3.20;;;14.30;99.90;;;;;;10088415;28;20112;-72
2022/11/03 10:57:10;;;;;;;4.93;2.88;;;14.30;99.90;;;;;;10110300;28;20020;-72
2022/11/03 11:02:01;;;;;;;6.38;3.10;;;14.30;99.90;;;;;;10105969;28;20025;-72
2022/11/03 11:06:52;;;;;;;6.55;3.13;;;14.30;99.90;;;;;;10085013;28;20340;-72
2022/11/03 11:12:13;;;;;;;7.72;2.85;;;14.30;99.90;;;;;;10100085;28;20037;-72
2022/11/03 11:17:24;;;;;;;4.47;3.03;;;14.20;99.90;;;;;;10092421;28;20035;-72
2022/11/03 11:22:22;;;;;;;5.30;2.50;;;14.20;99.90;;;;;;10081066;28;20021;-72
2022/11/03 11:27:45;;;;;;;6.53;2.65;;;14.10;99.90;;;;;;10097419;28;20055;-72
2022/11/03 11:32:45;;;;;;;4.80;2.47;;;14.10;99.90;;;;;;10090714;28;20102;-75
2022/11/03 11:37:37;;;;;;;7.65;2.90;;;14.10;99.90;;;;;;10095331;28;20281;-71
2022/11/03 11:42:28;;;;;;;7.00;2.90;;;14.10;99.90;;;;;;10102506;28;20103;-73
2022/11/03 11:47:21;;;;;;;7.65;3.28;;;14.20;99.90;;;;;;10095274;28;20044;-72
2022/11/03 11:52:16;;;;;;;5.30;2.95;;;14.20;99.90;;;;;;10100269;28;20091;-74
2022/11/03 11:57:18;;;;;;;6.85;2.88;;;14.20;99.90;;;;;;10103477;28;20029;-74
2022/11/03 12:02:17;;;;;;;7.07;3.50;;;14.30;99.90;;;;;;10099671;28;20032;-74
2022/11/03 12:07:17;;;;;;;5.25;2.70;;;14.20;99.90;;;;;;10109685;28;20167;-73
2022/11/03 12:12:07;;;;;;;5.70;3.53;;;14.20;99.90;;;;;;10101740;28;20068;-73
2022/11/03 12:17:18;;;;;;;4.47;3.25;;;14.20;99.90;;;;;;10090128;28;20017;-73
2022/11/03 12:22:11;;;;;;;5.90;2.70;;;14.20;99.90;;;;;;10106393;28;20037;-75
2022/11/03 12:27:15;;;;;;;7.07;3.25;;;14.20;99.90;;;;;;10106557;28;20129;-72
2022/11/03 12:32:06;;;;;;;7.32;3.05;;;14.20;99.90;;;;;;10105863;28;20075;-72
2022/11/03 12:37:00;;;;;;;7.78;3.25;;;14.20;99.90;;;;;;10110924;28;20262;-73
2022/11/03 12:41:50;;;;;;;5.65;3.38;;;14.30;99.90;;;;;;10104868;28;20029;-72
2022/11/03 12:46:41;;;;;;;5.55;3.50;;;14.30;99.90;;;;;;10087669;28;20045;-73
2022/11/03 12:51:34;;;;;;;7.97;3.15;;;14.30;99.90;;;;;;10105846;28;20473;-73
2022/11/03 12:56:24;;;;;;;7.18;2.88;;;14.40;99.90;;;;;;10101818;28;20028;-70
2022/11/03 13:01:15;;;;;;;6.32;3.33;;;14.30;99.90;;;;;;10111461;28;20029;-75
2022/11/03 13:06:09;;;;;;;11.25;4.28;;;14.10;99.90;;;;;;10100405;28;20238;-74
2022/11/03 13:10:59;;;;;;;4.60;3.03;;;14.00;99.90;;;;;;10106380;28;20036;-75
2022/11/03 13:15:51;;;;;;;9.57;3.90;;;13.90;99.90;;;;;;10103639;28;20047;-72
2022/11/03 13:20:43;;;;;;;7.18;3.50;;;13.90;99.90;;;;;;10105334;28;20025;-72
2022/11/03 13:25:34;;;;;;;11.43;4.28;;;13.90;99.90;;;;;;10106728;28;20037;-75
2022/11/03 13:30:29;;;;;;;8.75;4.28;;;14.00;99.90;;;;;;10084731;28;20079;-74
2022/11/03 13:35:20;;;;;;;6.50;3.27;;;14.10;99.90;;;;;;10089502;28;20219;-73
2022/11/03 13:40:12;;;;;;;7.13;4.60;;;14.10;99.90;;;;;;10106205;28;20017;-74
2022/11/03 13:45:03;;;;;;;5.53;3.33;;;14.00;99.90;;;;;;10109535;28;20056;-73
2022/11/03 13:49:54;;;;;;;7.40;3.90;;;14.10;99.90;;;;;;10100475;28;20398;-74
2022/11/03 13:54:45;;;;;;;6.20;3.53;;;14.10;99.90;;;;;;10095230;28;20112;-74
2022/11/03 13:59:36;;;;;;;6.43;3.92;;;14.00;99.90;;;;;;10110762;28;20044;-72
2022/11/03 14:04:27;;;;;;;14.63;4.82;;;14.10;99.90;;;;;;10109238;28;20032;-74
2022/11/03 14:09:18;;;;;;;6.78;3.58;;;14.00;99.90;;;;;;10110054;28;20029;-72
2022/11/03 14:14:12;;;;;;;5.07;3.25;;;14.00;99.90;;;;;;10091371;28;20099;-74
2022/11/03 14:19:03;;;;;;;5.32;2.78;;;14.00;99.90;;;;;;10113776;28;20033;-74
2022/11/03 14:23:54;;;;;;;5.88;3.10;;;14.00;99.90;;;;;;10103759;28;20095;-73
2022/11/03 14:28:45;;;;;;;8.63;3.60;;;14.10;99.90;;;;;;10109095;28;20060;-73
2022/11/03 14:33:35;;;;;;;6.72;3.50;;;14.00;99.90;;;;;;10108104;28;20021;-72
2022/11/03 14:38:26;;;;;;;5.32;3.25;;;14.00;99.90;;;;;;10108704;28;20056;-73
2022/11/03 14:43:17;;;;;;;6.50;3.60;;;14.00;99.90;;;;;;10109282;28;20489;-72
2022/11/03 14:48:11;;;;;;;8.50;3.90;;;14.00;99.90;;;;;;10114931;28;20021;-71
2022/11/03 14:53:03;;;;;;;6.13;3.78;;;13.90;99.90;;;;;;10089397;28;20025;-71
2022/11/03 14:58:03;;;;;;;6.22;3.45;;;13.80;99.90;;;;;;10110309;28;20032;-72
2022/11/03 15:03:01;;;;;;;11.52;5.10;;;13.80;99.90;;;;;;10071567;28;20032;-72
2022/11/03 15:07:52;;;;;;;12.90;4.85;;;13.80;99.90;;;;;;10098841;28;20035;-74
2022/11/03 15:12:54;;;;;;;8.00;3.80;;;13.90;99.90;;;;;;10106656;28;20100;-72
2022/11/03 15:17:45;;;;;;;6.95;3.80;;;13.90;99.90;;;;;;10109520;28;20269;-72
2022/11/03 15:22:37;;;;;;;6.63;3.55;;;13.90;99.90;;;;;;10084685;28;20273;-74
2022/11/03 15:27:28;;;;;;;8.90;4.05;;;14.00;99.90;;;;;;10087215;28;20068;-74
2022/11/03 15:32:55;;;;;;;7.57;3.60;;;14.00;99.90;;;;;;10087011;28;20029;-75
2022/11/03 15:37:46;;;;;;;13.05;4.68;;;13.90;99.90;;;;;;10103307;28;20033;-72
2022/11/03 15:42:37;;;;;;;7.00;3.60;;;13.90;99.90;;;;;;10093177;28;20021;-75
2022/11/03 15:47:33;;;;;;;8.02;3.15;;;13.80;99.90;;;;;;10094733;28;20143;-74
2022/11/03 15:52:24;;;;;;;8.52;3.83;;;13.90;99.90;;;;;;10108790;28;20139;-76
2022/11/03 15:57:15;;;;;;;8.23;4.50;;;13.90;99.90;;;;;;10103523;28;20029;-75
2022/11/03 16:02:07;;;;;;;8.57;3.38;;;13.70;99.90;;;;;;10108724;28;20025;-74
2022/11/03 16:06:58;;;;;;;9.35;3.65;;;13.60;99.90;;;;;;10091663;28;20468;-72
2022/11/03 16:11:49;;;;;;;4.57;3.65;;;13.50;99.90;;;;;;10093527;28;20472;-73
2022/11/03 16:16:55;;;;;;;9.38;4.07;;;13.40;99.90;;;;;;10089434;28;20499;-74
2022/11/03 16:21:46;;;;;;;6.60;3.58;;;13.40;99.90;;;;;;10110210;28;20025;-73
2022/11/03 16:26:49;;;;;;;7.00;3.47;;;13.40;99.90;;;;;;10084310;28;20114;-73
2022/11/03 16:31:40;;;;;;;5.47;3.42;;;13.40;99.90;;;;;;10077899;28;20033;-73
2022/11/03 16:36:35;;;;;;;6.78;3.22;;;13.40;99.90;;;;;;10107773;28;20025;-73
2022/11/03 16:41:31;;;;;;;5.82;3.20;;;13.40;99.90;;;;;;10092527;28;20029;-73
2022/11/03 16:46:22;;;;;;;9.32;4.82;;;13.30;99.90;;;;;;10097605;28;20079;-73
2022/11/03 16:51:12;;;;;;;9.50;3.75;;;13.40;99.90;;;;;;10101999;28;20017;-71
2022/11/03 16:56:04;;;;;;;9.60;3.25;;;13.40;99.90;;;;;;10107122;28;20033;-73
2022/11/03 17:00:55;;;;;;;5.53;3.22;;;13.40;99.90;;;;;;10106238;28;20491;-73
2022/11/03 17:05:49;;;;;;;5.43;2.95;;;13.20;99.90;;;;;;10103790;28;20045;-73
2022/11/03 17:10:40;;;;;;;5.32;2.83;;;13.10;99.90;;;;;;10097730;28;20061;-73
2022/11/03 17:15:31;;;;;;;10.00;4.45;;;13.10;99.90;;;;;;10087012;28;20033;-74
2022/11/03 17:20:21;;;;;;;8.57;3.30;;;13.00;99.90;;;;;;10103182;28;20025;-71
2022/11/03 17:25:12;;;;;;;6.45;3.13;;;13.00;99.90;;;;;;10092155;28;20136;-73
2022/11/03 17:30:07;;;;;;;9.20;3.25;;;13.00;99.90;;;;;;10107941;28;20016;-74
2022/11/03 17:34:58;;;;;;;5.85;3.95;;;13.00;99.90;;;;;;10104307;28;20053;-73
2022/11/03 17:39:49;;;;;;;9.07;3.40;;;13.00;99.90;;;;;;10104007;28;20099;-73
2022/11/03 17:44:48;;;;;;;6.22;4.20;;;13.10;99.90;;;;;;10103052;28;20045;-73
2022/11/03 17:49:39;;;;;;;5.78;3.05;;;13.10;99.90;;;;;;10090789;28;20061;-72
2022/11/03 17:54:31;;;;;;;7.07;3.92;;;13.10;99.90;;;;;;10088116;28;20044;-73
2022/11/03 17:59:24;;;;;;;9.13;4.95;;;13.00;99.90;;;;;;10107697;28;20013;-73
2022/11/03 18:04:15;;;;;;;5.95;3.47;;;13.10;99.90;;;;;;10079034;28;20375;-72
2022/11/03 18:09:06;;;;;;;7.43;3.55;;;13.00;99.90;;;;;;10098333;28;20503;-73
2022/11/03 18:13:57;;;;;;;7.30;2.95;;;13.00;99.90;;;;;;10090468;28;20083;-74
2022/11/03 18:18:47;;;;;;;9.65;4.13;;;13.00;99.90;;;;;;10091786;28;20484;-73
2022/11/03 18:23:38;;;;;;;6.10;3.67;;;13.10;99.90;;;;;;10080900;28;20176;-72
2022/11/03 18:28:29;;;;;;;6.18;4.20;;;13.00;99.90;;;;;;10082955;28;20048;-71
2022/11/03 18:33:27;;;;;;;8.07;4.60;;;13.00;99.90;;;;;;10092083;28;20112;-73
2022/11/03 18:38:22;;;;;;;8.13;4.25;;;13.00;99.90;;;;;;10085571;28;20040;-72
2022/11/03 18:43:15;;;;;;;8.30;3.92;;;13.00;99.90;;;;;;10092913;28;20033;-73
2022/11/03 18:48:06;;;;;;;7.88;4.57;;;13.10;99.90;;;;;;10088050;28;20033;-72
2022/11/03 18:52:57;;;;;;;5.75;3.67;;;13.00;99.90;;;;;;10058959;28;20100;-73
2022/11/03 18:57:49;;;;;;;6.47;3.35;;;13.00;99.90;;;;;;10093386;28;20396;-73
2022/11/03 19:02:40;;;;;;;6.47;4.13;;;13.00;99.90;;;;;;10088980;28;20045;-73
2022/11/03 19:07:39;;;;;;;9.38;4.70;;;13.00;99.90;;;;;;10096748;28;20038;-71
2022/11/03 19:12:31;;;;;;;7.60;4.18;;;13.00;99.90;;;;;;10102264;28;20029;-68
2022/11/03 19:17:22;;;;;;;9.80;4.20;;;13.00;99.90;;;;;;10089228;28;20088;-68
2022/11/03 19:22:19;;;;;;;5.13;3.13;;;13.00;99.90;;;;;;10083259;28;20032;-68
2022/11/03 19:27:16;;;;;;;6.55;3.88;;;13.10;99.90;;;;;;10100512;28;20106;-69
2022/11/03 19:32:15;;;;;;;7.93;4.03;;;13.10;99.90;;;;;;10093288;28;20284;-70
2022/11/03 19:37:05;;;;;;;8.20;3.42;;;13.10;99.90;;;;;;10091171;28;20124;-70
2022/11/03 19:47:15;;;;;;;8.18;4.00;;;13.10;99.90;;;;;;10098978;28;20064;-71
2022/11/03 19:52:07;;;;;;;;;;;13.10;99.90;;;;;;10094905;28;20139;-69
2022/11/03 19:57:18;;;;;;;7.03;3.60;;;13.10;99.90;;;;;;10098625;28;19909;-71
2022/11/03 20:02:14;;;;;;;10.55;5.13;;;13.10;99.90;;;;;;10105692;28;20056;-73
2022/11/03 20:07:10;;;;;;;7.70;3.17;;;12.90;99.90;;;;;;10064232;28;20284;-69
2022/11/03 20:12:02;;;;;;;;;;;12.20;99.90;;;;;;10068201;28;20032;-69
2022/11/03 20:16:57;;;;;;;4.15;2.28;;;12.00;99.90;;;;;;10099716;28;20426;-73
2022/11/03 20:21:51;;;;;;;4.38;2.15;;;11.90;99.90;;;;;;10094264;28;20024;-71
2022/11/03 20:26:41;;;;;;;2.75;1.77;;;11.80;99.90;;;;;;10072885;28;20515;-70
2022/11/03 20:31:32;;;;;;;3.08;1.80;;;11.80;99.90;;;;;;10099431;28;20063;-70
2022/11/03 20:36:23;;;;;;;4.20;2.17;;;11.80;99.90;;;;;;10087679;28;20526;-73
2022/11/03 20:41:15;;;;;;;3.22;1.35;;;11.90;99.90;;;;;;10098261;28;20021;-73
2022/11/03 20:46:27;;;;;;;1.95;1.38;;;12.00;99.90;;;;;;10099183;28;20044;-71
2022/11/03 20:51:20;;;;;;;4.07;1.83;;;12.00;99.90;;;;;;10090637;28;20022;-72
2022/11/03 20:56:19;;;;;;;2.72;2.00;;;12.00;99.90;;;;;;10093475;28;20032;-75
2022/11/03 21:01:35;;;;;;;4.13;1.70;;;12.10;99.90;;;;;;10066213;28;20032;-71
2022/11/03 21:06:27;;;;;;;2.47;1.40;;;12.10;99.90;;;;;;10068560;28;20046;-72
2022/11/03 21:11:22;;;;;;;4.32;1.58;;;12.00;99.90;;;;;;10091930;28;20025;-71
2022/11/03 21:21:22;;;;;;;2.40;1.45;;;12.00;99.90;;;;;;10095867;28;20079;-71
2022/11/03 21:26:12;;;;;;;2.25;1.33;;;12.00;99.90;;;;;;10095979;28;20296;-63
2022/11/03 21:31:03;;;;;;;1.75;1.23;;;12.10;99.90;;;;;;10087750;28;20025;-67
2022/11/03 21:35:54;;;;;;;3.03;1.70;;;12.10;99.90;;;;;;10096522;28;20515;-67
2022/11/03 21:40:46;;;;;;;4.22;1.77;;;12.10;99.90;;;;;;10102646;22;20530;-65
2022/11/03 21:45:37;;;;;;;2.13;1.33;;;12.20;99.90;;;;;;10131728;28;20029;-63
2022/11/03 21:50:27;;;;;;;2.13;1.85;;;12.20;99.90;;;;;;10135462;28;20025;-63
2022/11/03 21:55:18;;;;;;;4.05;1.65;;;12.20;99.90;;;;;;10136584;28;20101;-66
2022/11/03 22:00:09;;;;;;;2.70;1.70;;;12.30;99.90;;;;;;10135813;28;20013;-62
2022/11/03 22:05:00;;;;;;;2.33;1.55;;;12.30;99.90;;;;;;10134342;28;20036;-62
2022/11/03 22:09:51;;;;;;;3.55;1.77;;;12.30;99.90;;;;;;10138503;28;20016;-63
2022/11/03 22:45:49;;;;;;;3.63;1.85;;;12.30;99.90;;;;;;10135196;28;20067;-62
2022/11/03 22:50:40;;;;;;;1.70;1.30;;;12.30;99.90;;;;;;10145029;28;20138;-62
2022/11/03 22:55:31;;;;;;;1.75;1.15;;;12.20;99.90;;;;;;10140380;28;20056;-62
2022/11/03 23:00:21;;;;;;;2.42;1.00;;;12.30;99.90;;;;;;10148789;28;20298;-65
2022/11/03 23:05:12;;;;;;;1.58;0.93;;;12.20;99.90;;;;;;10145874;28;20410;-63
2022/11/03 23:10:03;;;;;;;1.60;0.82;;;12.20;99.90;;;;;;10128169;28;20027;-61
2022/11/03 23:25:12;;;;;;;1.02;0.60;;;12.10;99.90;;;;;;10152832;28;20500;-66
2022/11/03 23:30:03;;;;;;;1.15;0.80;;;12.00;99.90;;;;;;10149735;28;20154;-61
2022/11/03 23:34:54;;;;;;;1.45;0.85;;;12.00;99.90;;;;;;10143508;28;20062;-61
2022/11/03 23:39:44;;;;;;;1.23;0.60;;;12.00;99.90;;;;;;10128905;28;20021;-62
2022/11/03 23:49:44;;;;;;;0.57;0.50;;;12.00;99.90;;;;;;10100092;28;20120;-65
2022/11/03 23:54:35;;;;;;;0.90;0.50;;;11.90;99.90;;;;;;10099116;28;20396;-68
2022/11/03 23:59:26;;;;;;;1.88;0.60;;;12.00;99.90;;;;;;10102902;28;20036;-66
